sensor_id;sensor_type;location;lat;lon;timestamp;pressure;altitude;pressure_sealevel;temperature;humidity
19777;BME280;10047;42.490;26.012;2023-12-20T00:00:56;99457.78;;;1.81;100.00
19777;BME280;10047;42.490;26.012;2023-12-20T00:03:21;99436.88;;;2.04;100.00
19777;BME280;10047;42.490;26.012;2023-12-20T00:05:47;99435.97;;;2.25;100.00
19777;BME280;10047;42.490;26.012;2023-12-20T00:08:12;99443.44;;;2.37;100.00
19777;BME280;10047;42.490;26.012;2023-12-20T00:10:37;99467.81;;;1.97;100.00
19777;BME280;10047;42.490;26.012;2023-12-20T00:13:03;99451.84;;;2.22;100.00
19777;BME280;10047;42.490;26.012;2023-12-20T00:15:28;99474.47;;;1.97;100.00
19777;BME280;10047;42.490;26.012;2023-12-20T00:17:53;99464.44;;;2.03;100.00
19777;BME280;10047;42.490;26.012;2023-12-20T00:20:22;99473.69;;;1.90;100.00
19777;BME280;10047;42.490;26.012;2023-12-20T00:22:47;99484.53;;;1.88;100.00
19777;BME280;10047;42.490;26.012;2023-12-20T00:25:13;99477.00;;;1.92;100.00
19777;BME280;10047;42.490;26.012;2023-12-20T00:27:38;99470.31;;;2.02;100.00
19777;BME280;10047;42.490;26.012;2023-12-20T00:30:03;99477.84;;;1.96;100.00
19777;BME280;10047;42.490;26.012;2023-12-20T00:32:29;99478.69;;;1.90;100.00
19777;BME280;10047;42.490;26.012;2023-12-20T00:34:54;99461.97;;;1.95;100.00
19777;BME280;10047;42.490;26.012;2023-12-20T00:37:19;99436.03;;;2.10;100.00
19777;BME280;10047;42.490;26.012;2023-12-20T00:39:44;99429.41;;;1.88;100.00
19777;BME280;10047;42.490;26.012;2023-12-20T00:42:10;99403.53;;;1.80;100.00
19777;BME280;10047;42.490;26.012;2023-12-20T00:44:35;99360.91;;;1.98;100.00
19777;BME280;10047;42.490;26.012;2023-12-20T00:47:00;99336.59;;;2.09;100.00
19777;BME280;10047;42.490;26.012;2023-12-20T00:49:26;99309.81;;;2.23;100.00
19777;BME280;10047;42.490;26.012;2023-12-20T00:51:51;99303.25;;;1.96;100.00
19777;BME280;10047;42.490;26.012;2023-12-20T00:54:17;99304.97;;;1.88;100.00
19777;BME280;10047;42.490;26.012;2023-12-20T00:56:50;99286.53;;;1.97;100.00
19777;BME280;10047;42.490;26.012;2023-12-20T00:59:16;99277.41;;;1.88;100.00
19777;BME280;10047;42.490;26.012;2023-12-20T01:01:41;99268.25;;;1.83;100.00
19777;BME280;10047;42.490;26.012;2023-12-20T01:04:07;99265.75;;;1.80;100.00
19777;BME280;10047;42.490;26.012;2023-12-20T01:06:32;99264.91;;;1.79;100.00
19777;BME280;10047;42.490;26.012;2023-12-20T01:08:57;99272.53;;;1.56;100.00
19777;BME280;10047;42.490;26.012;2023-12-20T01:11:23;99266.72;;;1.54;100.00
19777;BME280;10047;42.490;26.012;2023-12-20T01:13:48;99264.19;;;1.57;100.00
19777;BME280;10047;42.490;26.012;2023-12-20T01:16:13;99270.00;;;1.62;100.00
19777;BME280;10047;42.490;26.012;2023-12-20T01:18:38;99252.41;;;1.77;100.00
19777;BME280;10047;42.490;26.012;2023-12-20T01:21:04;99254.13;;;1.69;100.00
19777;BME280;10047;42.490;26.012;2023-12-20T01:23:29;99253.19;;;1.83;100.00
19777;BME280;10047;42.490;26.012;2023-12-20T01:25:55;99270.03;;;1.58;100.00
19777;BME280;10047;42.490;26.012;2023-12-20T01:28:20;99266.69;;;1.60;100.00
19777;BME280;10047;42.490;26.012;2023-12-20T01:30:45;99263.31;;;1.63;100.00
19777;BME280;10047;42.490;26.012;2023-12-20T01:33:10;99258.28;;;1.70;100.00
19777;BME280;10047;42.490;26.012;2023-12-20T01:35:36;99272.53;;;1.53;100.00
19777;BME280;10047;42.490;26.012;2023-12-20T01:38:02;99254.91;;;1.79;100.00
19777;BME280;10047;42.490;26.012;2023-12-20T01:40:27;99183.16;;;1.64;100.00
19777;BME280;10047;42.490;26.012;2023-12-20T01:43:06;99273.34;;;1.66;100.00
19777;BME280;10047;42.490;26.012;2023-12-20T01:45:33;99276.69;;;1.59;100.00
19777;BME280;10047;42.490;26.012;2023-12-20T01:47:58;99244.00;;;1.85;100.00
19777;BME280;10047;42.490;26.012;2023-12-20T01:50:24;99232.38;;;1.77;100.00
19777;BME280;10047;42.490;26.012;2023-12-20T01:52:49;99229.84;;;1.79;100.00
19777;BME280;10047;42.490;26.012;2023-12-20T01:55:17;99221.59;;;1.62;100.00
19777;BME280;10047;42.490;26.012;2023-12-20T01:57:43;99191.41;;;1.86;100.00
19777;BME280;10047;42.490;26.012;2023-12-20T02:00:09;99170.63;;;1.73;100.00
19777;BME280;10047;42.490;26.012;2023-12-20T02:02:36;99159.03;;;1.51;100.00
19777;BME280;10047;42.490;26.012;2023-12-20T02:05:01;99151.72;;;1.14;100.00
19777;BME280;10047;42.490;26.012;2023-12-20T02:07:27;99091.63;;;1.23;100.00
19777;BME280;10047;42.490;26.012;2023-12-20T02:09:53;99049.84;;;1.31;100.00
19777;BME280;10047;42.490;26.012;2023-12-20T02:12:18;99012.28;;;1.35;100.00
19777;BME280;10047;42.490;26.012;2023-12-20T02:14:44;98974.00;;;1.21;100.00
19777;BME280;10047;42.490;26.012;2023-12-20T02:17:09;98926.34;;;1.33;100.00
19777;BME280;10047;42.490;26.012;2023-12-20T02:19:34;98880.50;;;1.31;100.00
19777;BME280;10047;42.490;26.012;2023-12-20T02:22:07;98829.53;;;1.40;100.00
19777;BME280;10047;42.490;26.012;2023-12-20T02:24:32;98804.72;;;1.20;100.00
19777;BME280;10047;42.490;26.012;2023-12-20T02:26:57;98723.50;;;1.45;100.00
19777;BME280;10047;42.490;26.012;2023-12-20T02:29:23;98674.25;;;1.47;100.00
19777;BME280;10047;42.490;26.012;2023-12-20T02:31:48;98647.94;;;1.18;100.00
19777;BME280;10047;42.490;26.012;2023-12-20T02:34:13;98571.97;;;1.25;100.00
19777;BME280;10047;42.490;26.012;2023-12-20T02:36:39;98530.47;;;1.07;100.00
19777;BME280;10047;42.490;26.012;2023-12-20T02:39:04;98471.25;;;1.09;100.00
19777;BME280;10047;42.490;26.012;2023-12-20T02:41:29;98397.56;;;1.28;100.00
19777;BME280;10047;42.490;26.012;2023-12-20T02:43:55;98354.09;;;1.34;100.00
19777;BME280;10047;42.490;26.012;2023-12-20T02:46:20;98348.56;;;1.15;100.00
19777;BME280;10047;42.490;26.012;2023-12-20T02:48:45;98289.63;;;1.46;100.00
19777;BME280;10047;42.490;26.012;2023-12-20T02:51:12;98303.28;;;1.30;100.00
19777;BME280;10047;42.490;26.012;2023-12-20T02:53:37;98295.81;;;1.27;100.00
19777;BME280;10047;42.490;26.012;2023-12-20T02:56:02;98319.66;;;1.01;100.00
19777;BME280;10047;42.490;26.012;2023-12-20T02:58:28;98284.44;;;1.11;100.00
19777;BME280;10047;42.490;26.012;2023-12-20T03:00:53;98266.31;;;1.00;100.00
19777;BME280;10047;42.490;26.012;2023-12-20T03:03:19;98225.31;;;1.09;100.00
19777;BME280;10047;42.490;26.012;2023-12-20T03:05:44;98192.84;;;1.06;100.00
19777;BME280;10047;42.490;26.012;2023-12-20T03:08:10;98154.13;;;1.23;100.00
19777;BME280;10047;42.490;26.012;2023-12-20T03:13:29;98131.47;;;1.29;100.00
19777;BME280;10047;42.490;26.012;2023-12-20T03:15:54;98151.19;;;1.03;100.00
19777;BME280;10047;42.490;26.012;2023-12-20T03:18:19;98113.00;;;1.35;100.00
19777;BME280;10047;42.490;26.012;2023-12-20T03:20:45;98137.69;;;1.12;100.00
19777;BME280;10047;42.490;26.012;2023-12-20T03:23:12;98132.72;;;1.10;100.00
19777;BME280;10047;42.490;26.012;2023-12-20T03:25:37;98108.78;;;1.37;100.00
19777;BME280;10047;42.490;26.012;2023-12-20T03:28:03;98165.53;;;0.97;100.00
19777;BME280;10047;42.490;26.012;2023-12-20T03:30:28;98178.25;;;0.84;100.00
19777;BME280;10047;42.490;26.012;2023-12-20T03:32:53;98172.41;;;0.84;100.00
19777;BME280;10047;42.490;26.012;2023-12-20T03:35:19;98210.44;;;0.54;100.00
19777;BME280;10047;42.490;26.012;2023-12-20T03:37:44;98145.34;;;1.04;100.00
19777;BME280;10047;42.490;26.012;2023-12-20T03:40:09;98181.66;;;0.80;100.00
19777;BME280;10047;42.490;26.012;2023-12-20T03:42:35;98214.56;;;0.56;100.00
19777;BME280;10047;42.490;26.012;2023-12-20T03:45:00;98203.59;;;0.65;100.00
19777;BME280;10047;42.490;26.012;2023-12-20T03:47:25;98171.25;;;1.02;100.00
19777;BME280;10047;42.490;26.012;2023-12-20T03:49:50;98217.84;;;0.60;100.00
19777;BME280;10047;42.490;26.012;2023-12-20T03:52:16;98188.94;;;0.93;100.00
19777;BME280;10047;42.490;26.012;2023-12-20T03:54:41;98247.22;;;0.46;100.00
19777;BME280;10047;42.490;26.012;2023-12-20T03:57:09;98253.03;;;0.49;100.00
19777;BME280;10047;42.490;26.012;2023-12-20T03:59:35;98221.00;;;0.71;100.00
19777;BME280;10047;42.490;26.012;2023-12-20T04:02:01;98224.28;;;0.73;100.00
19777;BME280;10047;42.490;26.012;2023-12-20T04:04:27;98254.63;;;0.52;100.00
19777;BME280;10047;42.490;26.012;2023-12-20T04:06:52;98240.13;;;0.72;100.00
19777;BME280;10047;42.490;26.012;2023-12-20T04:09:17;98266.22;;;0.57;100.00
19777;BME280;10047;42.490;26.012;2023-12-20T04:11:42;98308.53;;;0.10;100.00
19777;BME280;10047;42.490;26.012;2023-12-20T04:14:08;98289.22;;;0.26;100.00
19777;BME280;10047;42.490;26.012;2023-12-20T04:16:33;98265.63;;;0.43;100.00
19777;BME280;10047;42.490;26.012;2023-12-20T04:18:58;98260.22;;;0.66;100.00
19777;BME280;10047;42.490;26.012;2023-12-20T04:21:25;98296.63;;;0.29;100.00
19777;BME280;10047;42.490;26.012;2023-12-20T04:23:50;98303.56;;;0.12;100.00
19777;BME280;10047;42.490;26.012;2023-12-20T04:26:15;98256.22;;;0.57;100.00
19777;BME280;10047;42.490;26.012;2023-12-20T04:28:40;98286.81;;;0.17;100.00
19777;BME280;10047;42.490;26.012;2023-12-20T04:31:06;98292.19;;;-0.11;100.00
19777;BME280;10047;42.490;26.012;2023-12-20T04:33:31;98253.91;;;-0.10;100.00
19777;BME280;10047;42.490;26.012;2023-12-20T04:35:56;98215.78;;;0.34;100.00
19777;BME280;10047;42.490;26.012;2023-12-20T04:38:22;98234.88;;;0.85;100.00
19777;BME280;10047;42.490;26.012;2023-12-20T04:40:47;98319.03;;;0.35;100.00
19777;BME280;10047;42.490;26.012;2023-12-20T04:43:13;98401.97;;;-0.05;100.00
19777;BME280;10047;42.490;26.012;2023-12-20T04:45:38;98437.25;;;0.37;100.00
19777;BME280;10047;42.490;26.012;2023-12-20T04:48:03;98523.28;;;0.15;100.00
19777;BME280;10047;42.490;26.012;2023-12-20T04:50:29;98597.22;;;0.32;100.00
19777;BME280;10047;42.490;26.012;2023-12-20T04:52:54;98666.44;;;0.21;100.00
19777;BME280;10047;42.490;26.012;2023-12-20T04:55:25;98737.09;;;0.34;100.00
19777;BME280;10047;42.490;26.012;2023-12-20T04:57:51;98807.84;;;0.43;100.00
19777;BME280;10047;42.490;26.012;2023-12-20T05:00:16;98847.75;;;0.54;100.00
19777;BME280;10047;42.490;26.012;2023-12-20T05:02:41;98902.84;;;0.39;100.00
19777;BME280;10047;42.490;26.012;2023-12-20T05:05:07;98937.72;;;0.57;100.00
19777;BME280;10047;42.490;26.012;2023-12-20T05:07:32;98981.91;;;0.53;100.00
19777;BME280;10047;42.490;26.012;2023-12-20T05:09:58;99002.84;;;0.21;100.00
19777;BME280;10047;42.490;26.012;2023-12-20T05:12:23;99053.53;;;0.63;100.00
19777;BME280;10047;42.490;26.012;2023-12-20T05:14:48;99047.78;;;0.33;100.00
19777;BME280;10047;42.490;26.012;2023-12-20T05:17:14;99062.81;;;0.19;100.00
19777;BME280;10047;42.490;26.012;2023-12-20T05:19:39;99082.72;;;0.61;100.00
19777;BME280;10047;42.490;26.012;2023-12-20T05:22:04;99108.63;;;0.09;100.00
19777;BME280;10047;42.490;26.012;2023-12-20T05:24:30;99127.72;;;0.36;100.00
19777;BME280;10047;42.490;26.012;2023-12-20T05:26:55;99159.41;;;0.41;100.00
19777;BME280;10047;42.490;26.012;2023-12-20T05:29:20;99176.88;;;0.43;100.00
19777;BME280;10047;42.490;26.012;2023-12-20T05:31:45;99203.50;;;0.83;100.00
19777;BME280;10047;42.490;26.012;2023-12-20T05:34:11;99221.03;;;0.72;100.00
19777;BME280;10047;42.490;26.012;2023-12-20T05:36:36;99211.88;;;0.62;100.00
19777;BME280;10047;42.490;26.012;2023-12-20T05:39:02;99216.88;;;0.29;100.00
19777;BME280;10047;42.490;26.012;2023-12-20T05:41:28;99227.69;;;0.39;100.00
19777;BME280;10047;42.490;26.012;2023-12-20T05:43:54;99278.53;;;0.59;100.00
19777;BME280;10047;42.490;26.012;2023-12-20T05:46:19;99313.50;;;0.42;100.00
19777;BME280;10047;42.490;26.012;2023-12-20T05:48:44;99341.03;;;1.36;100.00
19777;BME280;10047;42.490;26.012;2023-12-20T05:51:12;99429.44;;;0.94;100.00
19777;BME280;10047;42.490;26.012;2023-12-20T05:53:38;99486.97;;;0.85;100.00
19777;BME280;10047;42.490;26.012;2023-12-20T05:56:03;99503.53;;;0.57;100.00
19777;BME280;10047;42.490;26.012;2023-12-20T05:58:29;99517.72;;;0.63;100.00
19777;BME280;10047;42.490;26.012;2023-12-20T06:00:54;99530.19;;;0.57;100.00
19777;BME280;10047;42.490;26.012;2023-12-20T06:03:19;99556.81;;;0.49;100.00
19777;BME280;10047;42.490;26.012;2023-12-20T06:05:45;99578.50;;;0.54;100.00
19777;BME280;10047;42.490;26.012;2023-12-20T06:08:10;99636.19;;;0.83;100.00
19777;BME280;10047;42.490;26.012;2023-12-20T06:10:35;99661.13;;;0.74;100.00
19777;BME280;10047;42.490;26.012;2023-12-20T06:13:01;99665.88;;;0.32;100.00
19777;BME280;10047;42.490;26.012;2023-12-20T06:15:26;99670.81;;;0.26;100.00
19777;BME280;10047;42.490;26.012;2023-12-20T06:17:51;99721.06;;;0.57;100.00
19777;BME280;10047;42.490;26.012;2023-12-20T06:20:21;99741.78;;;0.46;100.00
19777;BME280;10047;42.490;26.012;2023-12-20T06:22:47;99745.13;;;0.45;100.00
19777;BME280;10047;42.490;26.012;2023-12-20T06:25:12;99774.31;;;0.52;100.00
19777;BME280;10047;42.490;26.012;2023-12-20T06:27:37;99780.84;;;0.35;100.00
19777;BME280;10047;42.490;26.012;2023-12-20T06:30:03;99819.44;;;0.61;100.00
19777;BME280;10047;42.490;26.012;2023-12-20T06:32:28;99850.31;;;0.66;100.00
19777;BME280;10047;42.490;26.012;2023-12-20T06:34:54;99889.56;;;0.73;100.00
19777;BME280;10047;42.490;26.012;2023-12-20T06:37:19;99916.16;;;0.66;100.00
19777;BME280;10047;42.490;26.012;2023-12-20T06:39:45;99943.59;;;0.59;100.00
19777;BME280;10047;42.490;26.012;2023-12-20T06:42:10;100007.47;;;1.05;100.00
19777;BME280;10047;42.490;26.012;2023-12-20T06:44:35;99987.84;;;0.66;100.00
19777;BME280;10047;42.490;26.012;2023-12-20T06:47:01;99990.41;;;0.73;100.00
19777;BME280;10047;42.490;26.012;2023-12-20T06:49:27;99982.00;;;0.65;100.00
19777;BME280;10047;42.490;26.012;2023-12-20T06:51:52;100027.38;;;0.94;100.00
19777;BME280;10047;42.490;26.012;2023-12-20T06:54:18;100044.09;;;1.00;100.00
19777;BME280;10047;42.490;26.012;2023-12-20T06:56:43;100030.81;;;1.05;100.00
19777;BME280;10047;42.490;26.012;2023-12-20T06:59:08;100004.00;;;0.94;100.00
19777;BME280;10047;42.490;26.012;2023-12-20T07:01:33;99982.06;;;0.71;100.00
19777;BME280;10047;42.490;26.012;2023-12-20T07:03:59;100017.69;;;1.26;100.00
19777;BME280;10047;42.490;26.012;2023-12-20T07:06:24;99999.13;;;1.04;100.00
19777;BME280;10047;42.490;26.012;2023-12-20T07:08:52;99995.81;;;1.10;100.00
19777;BME280;10047;42.490;26.012;2023-12-20T07:11:17;99999.31;;;1.25;100.00
19777;BME280;10047;42.490;26.012;2023-12-20T07:13:42;99971.66;;;1.12;100.00
19777;BME280;10047;42.490;26.012;2023-12-20T07:16:07;99938.16;;;0.99;100.00
19777;BME280;10047;42.490;26.012;2023-12-20T07:18:33;99855.19;;;0.52;100.00
19777;BME280;10047;42.490;26.012;2023-12-20T07:20:58;99848.41;;;0.44;100.00
19777;BME280;10047;42.490;26.012;2023-12-20T07:23:23;99913.13;;;0.96;100.00
19777;BME280;10047;42.490;26.012;2023-12-20T07:25:48;99982.75;;;1.39;100.00
19777;BME280;10047;42.490;26.012;2023-12-20T07:28:25;99997.00;;;1.45;100.00
19777;BME280;10047;42.490;26.012;2023-12-20T07:30:50;99984.28;;;1.22;100.00
19777;BME280;10047;42.490;26.012;2023-12-20T07:33:16;99956.69;;;1.19;100.00
19777;BME280;10047;42.490;26.012;2023-12-20T07:35:41;99976.19;;;1.52;100.00
19777;BME280;10047;42.490;26.012;2023-12-20T07:38:06;99967.84;;;1.51;100.00
19777;BME280;10047;42.490;26.012;2023-12-20T07:40:31;99935.88;;;1.19;100.00
19777;BME280;10047;42.490;26.012;2023-12-20T07:42:57;99926.66;;;1.16;100.00
19777;BME280;10047;42.490;26.012;2023-12-20T07:45:23;99947.91;;;1.62;100.00
19777;BME280;10047;42.490;26.012;2023-12-20T07:47:48;99936.88;;;1.42;100.00
19777;BME280;10047;42.490;26.012;2023-12-20T07:50:15;99958.03;;;1.80;100.00
19777;BME280;10047;42.490;26.012;2023-12-20T07:52:40;99930.31;;;1.54;100.00
19777;BME280;10047;42.490;26.012;2023-12-20T07:55:05;99900.13;;;1.39;100.00
19777;BME280;10047;42.490;26.012;2023-12-20T07:57:31;99896.81;;;1.45;100.00
19777;BME280;10047;42.490;26.012;2023-12-20T07:59:56;99854.94;;;1.20;100.00
19777;BME280;10047;42.490;26.012;2023-12-20T08:02:22;99860.88;;;1.37;100.00
19777;BME280;10047;42.490;26.012;2023-12-20T08:04:48;99859.25;;;1.40;100.00
19777;BME280;10047;42.490;26.012;2023-12-20T08:07:13;99837.47;;;1.27;100.00
19777;BME280;10047;42.490;26.012;2023-12-20T08:09:38;99837.63;;;1.50;100.00
19777;BME280;10047;42.490;26.012;2023-12-20T08:12:03;99858.66;;;1.79;100.00
19777;BME280;10047;42.490;26.012;2023-12-20T08:14:29;99857.72;;;1.66;100.00
19777;BME280;10047;42.490;26.012;2023-12-20T08:16:54;99851.94;;;1.72;100.00
19777;BME280;10047;42.490;26.012;2023-12-20T08:19:19;99868.81;;;2.11;100.00
19777;BME280;10047;42.490;26.012;2023-12-20T08:21:44;99860.41;;;2.01;100.00
19777;BME280;10047;42.490;26.012;2023-12-20T08:24:10;99852.97;;;2.18;100.00
19777;BME280;10047;42.490;26.012;2023-12-20T08:26:35;99848.84;;;2.33;100.00
19777;BME280;10047;42.490;26.012;2023-12-20T08:29:00;99821.19;;;2.18;100.00
19777;BME280;10047;42.490;26.012;2023-12-20T08:31:26;99823.75;;;2.38;100.00
19777;BME280;10047;42.490;26.012;2023-12-20T08:33:51;99804.53;;;2.23;100.00
19777;BME280;10047;42.490;26.012;2023-12-20T08:36:18;99790.31;;;2.25;100.00
19777;BME280;10047;42.490;26.012;2023-12-20T08:38:44;99793.69;;;2.48;100.00
19777;BME280;10047;42.490;26.012;2023-12-20T08:41:09;99738.41;;;1.84;100.00
19777;BME280;10047;42.490;26.012;2023-12-20T08:43:35;99698.25;;;1.68;100.00
19777;BME280;10047;42.490;26.012;2023-12-20T08:46:01;99700.88;;;2.03;100.00
19777;BME280;10047;42.490;26.012;2023-12-20T08:48:26;99679.06;;;1.70;100.00
19777;BME280;10047;42.490;26.012;2023-12-20T08:50:51;99684.16;;;2.19;100.00
19777;BME280;10047;42.490;26.012;2023-12-20T08:53:17;99722.63;;;2.69;100.00
19777;BME280;10047;42.490;26.012;2023-12-20T08:55:43;99745.19;;;3.01;100.00
19777;BME280;10047;42.490;26.012;2023-12-20T08:58:08;99752.69;;;2.99;100.00
19777;BME280;10047;42.490;26.012;2023-12-20T09:00:34;99730.97;;;2.92;100.00
19777;BME280;10047;42.490;26.012;2023-12-20T09:02:59;99693.38;;;2.53;100.00
19777;BME280;10047;42.490;26.012;2023-12-20T09:05:24;99671.59;;;2.58;100.00
19777;BME280;10047;42.490;26.012;2023-12-20T09:07:50;99694.94;;;3.13;100.00
19777;BME280;10047;42.490;26.012;2023-12-20T09:10:15;99728.38;;;3.30;100.00
19777;BME280;10047;42.490;26.012;2023-12-20T09:12:42;99697.47;;;3.04;100.00
19777;BME280;10047;42.490;26.012;2023-12-20T09:15:07;99704.84;;;3.47;100.00
19777;BME280;10047;42.490;26.012;2023-12-20T09:17:33;99702.31;;;3.55;100.00
19777;BME280;10047;42.490;26.012;2023-12-20T09:19:58;99654.00;;;2.87;100.00
19777;BME280;10047;42.490;26.012;2023-12-20T09:22:25;99651.38;;;3.24;100.00
19777;BME280;10047;42.490;26.012;2023-12-20T09:24:50;99698.88;;;3.74;100.00
19777;BME280;10047;42.490;26.012;2023-12-20T09:27:15;99694.75;;;3.64;100.00
19777;BME280;10047;42.490;26.012;2023-12-20T09:29:40;99698.78;;;3.89;100.00
19777;BME280;10047;42.490;26.012;2023-12-20T09:32:07;99669.69;;;3.47;100.00
19777;BME280;10047;42.490;26.012;2023-12-20T09:34:33;99691.88;;;4.18;100.00
19777;BME280;10047;42.490;26.012;2023-12-20T09:36:58;99687.66;;;4.25;100.00
19777;BME280;10047;42.490;26.012;2023-12-20T09:39:23;99658.44;;;4.04;100.00
19777;BME280;10047;42.490;26.012;2023-12-20T09:42:02;99663.22;;;4.36;100.00
19777;BME280;10047;42.490;26.012;2023-12-20T09:44:28;99678.94;;;4.62;100.00
19777;BME280;10047;42.490;26.012;2023-12-20T09:46:55;99642.38;;;4.22;100.00
19777;BME280;10047;42.490;26.012;2023-12-20T09:49:21;99597.34;;;3.93;100.00
19777;BME280;10047;42.490;26.012;2023-12-20T09:51:47;99607.97;;;4.27;100.00
19777;BME280;10047;42.490;26.012;2023-12-20T09:54:16;99625.22;;;4.66;100.00
19777;BME280;10047;42.490;26.012;2023-12-20T09:56:41;99637.59;;;4.86;100.00
19777;BME280;10047;42.490;26.012;2023-12-20T09:59:07;99593.22;;;4.76;100.00
19777;BME280;10047;42.490;26.012;2023-12-20T10:01:32;99583.28;;;4.64;100.00
19777;BME280;10047;42.490;26.012;2023-12-20T10:03:59;99598.28;;;4.74;100.00
19777;BME280;10047;42.490;26.012;2023-12-20T10:06:25;99584.97;;;4.62;100.00
19777;BME280;10047;42.490;26.012;2023-12-20T10:08:50;99560.03;;;4.40;100.00
19777;BME280;10047;42.490;26.012;2023-12-20T10:11:16;99562.91;;;4.86;100.00
19777;BME280;10047;42.490;26.012;2023-12-20T10:13:43;99542.97;;;4.68;100.00
19777;BME280;10047;42.490;26.012;2023-12-20T10:16:08;99527.09;;;4.62;100.00
19777;BME280;10047;42.490;26.012;2023-12-20T10:18:33;99517.09;;;4.56;100.00
19777;BME280;10047;42.490;26.012;2023-12-20T10:21:00;99525.88;;;4.91;100.00
19777;BME280;10047;42.490;26.012;2023-12-20T10:23:25;99512.78;;;4.67;100.00
19777;BME280;10047;42.490;26.012;2023-12-20T10:25:57;99516.56;;;4.99;100.00
19777;BME280;10047;42.490;26.012;2023-12-20T10:28:23;99533.84;;;5.26;100.00
19777;BME280;10047;42.490;26.012;2023-12-20T10:30:52;99528.75;;;5.28;100.00
19777;BME280;10047;42.490;26.012;2023-12-20T10:33:24;99498.19;;;4.93;100.00
19777;BME280;10047;42.490;26.012;2023-12-20T10:35:50;99515.31;;;5.31;100.00
19777;BME280;10047;42.490;26.012;2023-12-20T10:38:17;99513.50;;;5.39;100.00
19777;BME280;10047;42.490;26.012;2023-12-20T10:40:42;99504.34;;;5.32;100.00
19777;BME280;10047;42.490;26.012;2023-12-20T10:43:09;99496.59;;;5.44;100.00
19777;BME280;10047;42.490;26.012;2023-12-20T10:45:34;99513.09;;;5.64;100.00
19777;BME280;10047;42.490;26.012;2023-12-20T10:47:59;99514.78;;;5.64;100.00
19777;BME280;10047;42.490;26.012;2023-12-20T10:50:27;99501.28;;;5.68;100.00
19777;BME280;10047;42.490;26.012;2023-12-20T10:52:54;99496.97;;;5.73;100.00
19777;BME280;10047;42.490;26.012;2023-12-20T10:55:22;99470.41;;;5.54;100.00
19777;BME280;10047;42.490;26.012;2023-12-20T10:57:49;99477.59;;;5.75;100.00
19777;BME280;10047;42.490;26.012;2023-12-20T11:00:16;99479.97;;;5.87;100.00
19777;BME280;10047;42.490;26.012;2023-12-20T11:02:42;99487.69;;;6.25;100.00
19777;BME280;10047;42.490;26.012;2023-12-20T11:07:55;99447.84;;;5.96;100.00
19777;BME280;10047;42.490;26.012;2023-12-20T11:15:25;99437.63;;;6.47;100.00
19777;BME280;10047;42.490;26.012;2023-12-20T11:17:55;99431.81;;;6.83;100.00
19777;BME280;10047;42.490;26.012;2023-12-20T11:20:22;99401.78;;;6.69;100.00
19777;BME280;10047;42.490;26.012;2023-12-20T11:22:52;99356.16;;;6.39;100.00
19777;BME280;10047;42.490;26.012;2023-12-20T11:25:17;99348.91;;;6.62;100.00
19777;BME280;10047;42.490;26.012;2023-12-20T11:27:43;99332.50;;;6.79;100.00
19777;BME280;10047;42.490;26.012;2023-12-20T11:30:09;99330.94;;;7.09;100.00
19777;BME280;10047;42.490;26.012;2023-12-20T11:32:35;99307.41;;;7.09;100.00
19777;BME280;10047;42.490;26.012;2023-12-20T11:35:01;99283.88;;;7.07;100.00
19777;BME280;10047;42.490;26.012;2023-12-20T11:37:42;99262.75;;;7.08;100.00
19777;BME280;10047;42.490;26.012;2023-12-20T11:40:08;99246.81;;;7.38;100.00
19777;BME280;10047;42.490;26.012;2023-12-20T11:42:39;99210.91;;;7.25;100.00
19777;BME280;10047;42.490;26.012;2023-12-20T11:45:05;99183.72;;;7.33;100.00
19777;BME280;10047;42.490;26.012;2023-12-20T11:47:34;99159.38;;;7.31;100.00
19777;BME280;10047;42.490;26.012;2023-12-20T11:50:00;99131.19;;;7.44;100.00
19777;BME280;10047;42.490;26.012;2023-12-20T11:52:28;99125.47;;;7.65;100.00
19777;BME280;10047;42.490;26.012;2023-12-20T11:54:53;99096.22;;;7.57;100.00
19777;BME280;10047;42.490;26.012;2023-12-20T11:57:19;99087.25;;;7.74;100.00
19777;BME280;10047;42.490;26.012;2023-12-20T11:59:44;99060.38;;;7.72;100.00
19777;BME280;10047;42.490;26.012;2023-12-20T12:02:11;99046.03;;;7.97;100.00
19777;BME280;10047;42.490;26.012;2023-12-20T12:04:36;99029.31;;;7.93;100.00
19777;BME280;10047;42.490;26.012;2023-12-20T12:07:02;99015.22;;;8.11;100.00
19777;BME280;10047;42.490;26.012;2023-12-20T12:09:28;98993.75;;;7.98;100.00
19777;BME280;10047;42.490;26.012;2023-12-20T12:11:53;98974.13;;;8.04;100.00
19777;BME280;10047;42.490;26.012;2023-12-20T12:14:18;98966.28;;;8.10;100.00
19777;BME280;10047;42.490;26.012;2023-12-20T12:16:45;98976.44;;;8.58;100.00
19777;BME280;10047;42.490;26.012;2023-12-20T12:19:23;98957.59;;;8.42;100.00
19777;BME280;10047;42.490;26.012;2023-12-20T12:21:50;98961.75;;;8.67;100.00
19777;BME280;10047;42.490;26.012;2023-12-20T12:24:19;98933.41;;;8.80;100.00
19777;BME280;10047;42.490;26.012;2023-12-20T12:26:49;98926.09;;;8.94;100.00
19777;BME280;10047;42.490;26.012;2023-12-20T12:29:14;98895.06;;;8.89;100.00
19777;BME280;10047;42.490;26.012;2023-12-20T12:31:40;98883.81;;;9.16;100.00
19777;BME280;10047;42.490;26.012;2023-12-20T12:34:05;98861.41;;;9.27;100.00
19777;BME280;10047;42.490;26.012;2023-12-20T12:36:31;98841.16;;;9.05;100.00
19777;BME280;10047;42.490;26.012;2023-12-20T12:39:02;98832.31;;;9.35;100.00
19777;BME280;10047;42.490;26.012;2023-12-20T12:41:28;98838.38;;;9.51;100.00
19777;BME280;10047;42.490;26.012;2023-12-20T12:43:54;98828.41;;;9.67;100.00
19777;BME280;10047;42.490;26.012;2023-12-20T12:46:19;98823.38;;;9.86;100.00
19777;BME280;10047;42.490;26.012;2023-12-20T12:48:44;98833.09;;;9.76;100.00
19777;BME280;10047;42.490;26.012;2023-12-20T12:51:10;98830.06;;;9.87;100.00
19777;BME280;10047;42.490;26.012;2023-12-20T12:53:38;98831.84;;;9.85;100.00